Time;durP1;ratioP1;P1;durP2;ratioP2;P2;SDS_P1;SDS_P2;PMS_P1;PMS_P2;Temp;Humidity;BMP_temperature;BMP_pressure;BME280_temperature;BME280_humidity;BME280_pressure;Samples;Min_cycle;Max_cycle;Signal;HPM_P1;HPM_P2
2023/06/19 00:01:56;;;;;;;10.67;7.27;;;25.20;59.90;;;;;;10235933;28;20235;-71
2023/06/19 00:07:03;;;;;;;7.70;6.90;;;25.10;60.40;;;;;;10233330;28;20236;-71
2023/06/19 00:12:04;;;;;;;7.63;6.87;;;25.00;61.20;;;;;;10232354;28;20223;-71
2023/06/19 00:17:05;;;;;;;7.70;6.63;;;24.90;62.00;;;;;;10220142;28;20231;-70
2023/06/19 00:22:06;;;;;;;7.60;6.80;;;24.90;62.20;;;;;;10235519;28;20277;-70
2023/06/19 00:27:07;;;;;;;9.93;7.60;;;24.80;62.50;;;;;;10221381;28;20756;-71
2023/06/19 00:32:07;;;;;;;7.60;7.00;;;24.80;63.00;;;;;;10224877;28;20258;-70
2023/06/19 00:37:08;;;;;;;12.03;8.07;;;24.70;62.70;;;;;;10224598;28;20907;-69
2023/06/19 00:42:09;;;;;;;14.17;9.40;;;24.50;62.00;;;;;;10229228;28;20599;-69
2023/06/19 00:47:10;;;;;;;11.13;7.97;;;24.40;61.40;;;;;;10223843;28;20220;-70
2023/06/19 00:52:10;;;;;;;14.93;8.30;;;24.30;58.70;;;;;;10222622;28;20285;-70
2023/06/19 00:57:11;;;;;;;8.00;6.60;;;24.30;59.60;;;;;;10235760;28;20223;-71
2023/06/19 01:02:11;;;;;;;7.47;6.73;;;24.20;59.10;;;;;;10230374;28;20278;-71
2023/06/19 01:07:15;;;;;;;7.83;7.03;;;24.20;57.70;;;;;;10228424;28;20230;-70
2023/06/19 01:12:23;;;;;;;8.30;7.10;;;24.00;63.60;;;;;;10230843;28;20251;-70
2023/06/19 01:17:26;;;;;;;9.83;8.27;;;23.90;64.40;;;;;;10225173;28;20235;-70
2023/06/19 01:22:27;;;;;;;8.80;7.90;;;23.70;65.90;;;;;;10228303;28;20232;-70
2023/06/19 01:27:31;;;;;;;8.63;7.07;;;23.50;66.90;;;;;;10225554;28;20231;-70
2023/06/19 01:32:43;;;;;;;7.43;6.73;;;23.30;67.60;;;;;;10232418;28;20232;-71
2023/06/19 01:37:45;;;;;;;8.50;7.60;;;23.20;68.40;;;;;;10219698;28;20224;-70
2023/06/19 01:42:45;;;;;;;8.97;7.23;;;23.10;69.20;;;;;;10224910;28;20226;-70
2023/06/19 01:47:46;;;;;;;10.03;7.67;;;23.00;70.00;;;;;;10230646;28;20237;-70
2023/06/19 01:52:47;;;;;;;8.07;7.37;;;23.00;70.60;;;;;;10219160;28;20243;-70
2023/06/19 01:57:47;;;;;;;9.03;7.60;;;22.90;71.10;;;;;;10225782;28;20235;-70
2023/06/19 02:02:48;;;;;;;8.70;7.57;;;22.80;71.90;;;;;;10224616;28;20238;-70
2023/06/19 02:07:48;;;;;;;8.20;7.37;;;22.70;72.80;;;;;;10226189;28;20234;-69
2023/06/19 02:12:49;;;;;;;11.20;7.47;;;22.60;73.00;;;;;;10224380;28;20222;-69
2023/06/19 02:17:54;;;;;;;10.73;7.40;;;22.40;74.00;;;;;;10217560;28;20222;-70
2023/06/19 02:22:55;;;;;;;8.57;7.73;;;22.30;75.20;;;;;;10227597;28;20683;-69
2023/06/19 02:27:55;;;;;;;8.30;7.53;;;22.20;75.30;;;;;;10224614;28;20323;-71
2023/06/19 02:32:56;;;;;;;8.20;7.27;;;22.20;75.50;;;;;;10224235;28;20220;-71
2023/06/19 02:37:57;;;;;;;8.27;7.33;;;22.10;75.40;;;;;;10219048;28;20223;-70
2023/06/19 02:42:58;;;;;;;8.97;6.97;;;22.10;75.50;;;;;;10216322;28;20312;-69
2023/06/19 02:47:58;;;;;;;10.00;7.33;;;22.10;75.40;;;;;;10223487;28;20369;-70
2023/06/19 02:52:59;;;;;;;7.87;7.10;;;22.10;75.50;;;;;;10219844;28;20227;-70
2023/06/19 02:57:59;;;;;;;8.70;7.10;;;22.10;75.50;;;;;;10232868;28;20216;-70
2023/06/19 03:03:00;;;;;;;7.97;6.97;;;22.10;75.80;;;;;;10227165;28;20220;-69
2023/06/19 03:08:01;;;;;;;8.23;7.23;;;22.10;76.10;;;;;;10219042;28;20946;-69
2023/06/19 03:13:04;;;;;;;7.77;7.07;;;22.10;76.40;;;;;;10222683;28;20214;-70
2023/06/19 03:18:07;;;;;;;8.17;7.03;;;22.10;76.70;;;;;;10223146;28;20231;-69
2023/06/19 03:23:07;;;;;;;9.90;7.20;;;22.10;76.70;;;;;;10221944;28;20273;-69
2023/06/19 03:28:08;;;;;;;7.87;6.93;;;22.20;76.40;;;;;;10223388;28;20698;-70
2023/06/19 03:33:09;;;;;;;8.57;6.87;;;22.30;76.30;;;;;;10218110;28;20231;-70
2023/06/19 03:38:09;;;;;;;7.57;6.87;;;22.40;76.20;;;;;;10219493;28;20224;-71
2023/06/19 03:43:10;;;;;;;8.03;7.33;;;22.40;76.20;;;;;;10219063;28;20224;-70
2023/06/19 03:48:11;;;;;;;7.60;6.90;;;22.50;76.20;;;;;;10222933;28;20232;-70
2023/06/19 03:53:12;;;;;;;10.13;7.07;;;22.50;75.80;;;;;;10232999;28;20231;-69
2023/06/19 03:58:12;;;;;;;10.47;7.20;;;22.70;75.40;;;;;;10239783;28;20227;-70
2023/06/19 04:03:13;;;;;;;11.70;7.20;;;22.70;75.10;;;;;;10232542;28;20365;-69
2023/06/19 04:08:13;;;;;;;8.33;7.57;;;22.80;74.90;;;;;;10225015;28;20235;-71
2023/06/19 04:13:15;;;;;;;8.00;6.80;;;22.80;74.90;;;;;;10231594;28;20219;-71
2023/06/19 04:18:15;;;;;;;8.87;6.80;;;22.70;75.20;;;;;;10223013;28;20678;-70
2023/06/19 04:23:16;;;;;;;8.63;7.37;;;22.70;75.40;;;;;;10225485;28;20235;-70
2023/06/19 04:28:17;;;;;;;7.20;6.60;;;22.70;75.80;;;;;;10222545;28;20235;-70
2023/06/19 04:33:20;;;;;;;9.87;6.37;;;22.80;75.80;;;;;;10225293;28;20226;-70
2023/06/19 04:38:24;;;;;;;11.10;6.33;;;22.90;75.60;;;;;;10229900;28;20390;-70
2023/06/19 04:43:24;;;;;;;7.33;6.07;;;23.10;75.20;;;;;;10226461;28;20231;-70
2023/06/19 04:48:27;;;;;;;6.87;6.13;;;23.40;74.80;;;;;;10220636;28;20268;-71
2023/06/19 04:53:30;;;;;;;7.77;6.10;;;23.70;74.10;;;;;;10225590;28;20223;-71
2023/06/19 04:58:31;;;;;;;10.30;5.80;;;24.00;73.20;;;;;;10233669;28;20233;-71
2023/06/19 05:03:32;;;;;;;7.53;5.40;;;24.50;72.10;;;;;;10233641;28;20652;-69
2023/06/19 05:08:33;;;;;;;7.87;5.30;;;25.70;69.50;;;;;;10218908;28;20240;-69
2023/06/19 05:13:33;;;;;;;5.43;4.97;;;28.00;62.80;;;;;;10225830;28;20249;-70
2023/06/19 05:18:34;;;;;;;9.63;5.47;;;29.30;58.50;;;;;;10227195;28;20212;-71
2023/06/19 05:23:35;;;;;;;7.63;4.90;;;29.50;57.80;;;;;;10225956;28;20642;-69
2023/06/19 05:28:36;;;;;;;7.07;4.47;;;29.50;57.90;;;;;;10218276;28;20303;-70
2023/06/19 05:33:36;;;;;;;8.17;4.53;;;29.60;57.60;;;;;;10227426;28;20211;-72
2023/06/19 05:38:37;;;;;;;7.67;4.17;;;30.40;56.70;;;;;;10218191;28;20223;-70
2023/06/19 05:43:38;;;;;;;6.30;3.60;;;31.30;55.40;;;;;;10225110;28;20597;-70
2023/06/19 05:48:39;;;;;;;4.63;3.90;;;32.00;53.70;;;;;;10235092;28;20266;-71
2023/06/19 05:53:40;;;;;;;8.73;4.20;;;32.40;52.80;;;;;;10232901;28;20258;-72
2023/06/19 05:58:40;;;;;;;4.40;4.00;;;32.50;52.50;;;;;;10226047;28;20219;-70
2023/06/19 06:03:41;;;;;;;6.43;4.23;;;32.40;53.20;;;;;;10230406;28;20241;-69
2023/06/19 06:08:41;;;;;;;4.30;3.90;;;33.00;52.20;;;;;;10215629;28;20704;-70
2023/06/19 06:13:43;;;;;;;4.97;3.23;;;33.70;51.20;;;;;;10224001;28;20216;-70
2023/06/19 06:18:45;;;;;;;8.57;4.10;;;34.40;49.90;;;;;;10215911;28;20358;-71
2023/06/19 06:23:47;;;;;;;7.70;3.77;;;34.60;49.10;;;;;;10222963;28;20220;-70
2023/06/19 06:28:49;;;;;;;3.90;3.60;;;34.40;49.70;;;;;;10230887;28;20220;-70
2023/06/19 06:33:49;;;;;;;7.93;3.50;;;35.00;49.00;;;;;;10209356;28;20227;-71
2023/06/19 06:38:50;;;;;;;3.90;3.47;;;35.90;48.20;;;;;;10219809;28;20222;-71
2023/06/19 06:43:52;;;;;;;3.87;3.10;;;36.00;46.30;;;;;;10218003;28;20228;-70
2023/06/19 06:48:52;;;;;;;4.93;3.03;;;36.30;45.70;;;;;;10223473;28;20707;-70
2023/06/19 06:53:53;;;;;;;5.07;2.97;;;37.00;45.10;;;;;;10221603;28;20232;-70
2023/06/19 06:58:54;;;;;;;4.33;2.77;;;38.10;43.70;;;;;;10221020;28;20215;-70
2023/06/19 07:03:54;;;;;;;4.47;2.77;;;38.10;43.20;;;;;;10219254;28;20249;-70
2023/06/19 07:08:55;;;;;;;3.50;3.20;;;38.60;42.60;;;;;;10229400;28;20234;-71
2023/06/19 07:13:55;;;;;;;3.13;2.80;;;37.80;42.70;;;;;;10214771;28;20243;-70
2023/06/19 07:18:56;;;;;;;4.10;3.20;;;35.30;46.40;;;;;;10215650;28;20739;-70
2023/06/19 07:24:00;;;;;;;4.67;3.43;;;34.10;48.70;;;;;;10225361;28;20239;-71
2023/06/19 07:29:01;;;;;;;4.40;3.30;;;32.80;51.60;;;;;;10218813;28;20227;-69
2023/06/19 07:34:02;;;;;;;5.23;4.70;;;32.40;52.50;;;;;;10224187;28;20229;-70
2023/06/19 07:39:03;;;;;;;5.23;3.40;;;32.40;52.70;;;;;;10224283;28;20708;-71
2023/06/19 07:44:04;;;;;;;7.27;3.93;;;33.10;52.30;;;;;;10233050;28;20230;-70
2023/06/19 07:49:04;;;;;;;3.90;3.33;;;34.20;49.90;;;;;;10229420;28;20276;-70
2023/06/19 07:54:05;;;;;;;70.77;6.77;;;35.70;47.90;;;;;;10233338;28;20307;-69
2023/06/19 07:59:05;;;;;;;3.93;2.83;;;36.90;45.70;;;;;;10230659;28;20286;-71
2023/06/19 08:04:06;;;;;;;3.57;2.90;;;37.90;44.10;;;;;;10232465;28;20243;-71
2023/06/19 08:09:07;;;;;;;3.83;2.80;;;38.40;43.00;;;;;;10224244;28;20227;-72
2023/06/19 08:14:07;;;;;;;11.47;3.73;;;37.70;44.10;;;;;;10232498;28;20224;-71
2023/06/19 08:19:08;;;;;;;4.43;2.80;;;37.40;44.20;;;;;;10228646;28;20255;-71
2023/06/19 08:24:08;;;;;;;3.43;2.93;;;37.80;44.00;;;;;;10223382;28;20231;-71
2023/06/19 08:29:09;;;;;;;7.63;3.03;;;37.60;43.90;;;;;;10224016;28;20226;-70
2023/06/19 08:34:10;;;;;;;5.37;3.00;;;36.70;46.20;;;;;;10220719;28;20227;-71
2023/06/19 08:39:10;;;;;;;7.97;3.90;;;37.00;45.90;;;;;;10224567;28;20223;-70
2023/06/19 08:44:11;;;;;;;3.63;3.33;;;37.20;45.00;;;;;;10229792;28;20305;-70
2023/06/19 08:49:13;;;;;;;5.80;3.37;;;36.20;46.50;;;;;;10230188;28;20596;-70
2023/06/19 08:54:13;;;;;;;14.37;3.80;;;36.00;47.40;;;;;;10236085;28;20651;-71
2023/06/19 08:59:16;;;;;;;3.37;3.10;;;38.00;44.30;;;;;;10226874;28;20219;-70
2023/06/19 09:04:18;;;;;;;4.27;3.40;;;39.90;42.10;;;;;;10237099;28;20226;-70
2023/06/19 09:09:32;;;;;;;3.23;2.93;;;40.60;40.10;;;;;;10230029;28;20722;-70
2023/06/19 09:14:36;;;;;;;6.33;3.67;;;40.50;40.70;;;;;;10225658;28;20587;-70
2023/06/19 09:19:37;;;;;;;6.40;3.23;;;41.70;39.20;;;;;;10218290;28;20240;-70
2023/06/19 09:24:39;;;;;;;5.77;3.37;;;41.30;38.70;;;;;;10225630;28;20254;-71
2023/06/19 09:29:41;;;;;;;3.90;3.13;;;40.10;39.90;;;;;;10225982;28;20742;-71
2023/06/19 09:34:42;;;;;;;3.43;3.13;;;39.40;41.50;;;;;;10218452;28;20224;-71
2023/06/19 09:39:43;;;;;;;7.90;3.53;;;40.90;39.60;;;;;;10224922;28;20238;-71
2023/06/19 09:44:48;;;;;;;5.73;3.53;;;42.50;37.90;;;;;;10224976;28;20227;-71
2023/06/19 09:49:54;;;;;;;3.60;3.30;;;42.70;36.40;;;;;;10219080;28;20317;-70
2023/06/19 09:54:55;;;;;;;5.37;2.80;;;41.70;38.00;;;;;;10237085;28;20733;-70
2023/06/19 09:59:58;;;;;;;4.13;3.40;;;40.40;39.90;;;;;;10224923;28;20227;-70
2023/06/19 10:04:59;;;;;;;7.10;3.80;;;41.30;38.50;;;;;;10224414;28;20731;-70
2023/06/19 10:10:08;;;;;;;8.03;3.27;;;42.40;37.10;;;;;;10228413;28;20627;-71
2023/06/19 10:15:27;;;;;;;4.47;3.17;;;42.20;36.70;;;;;;10223877;28;20655;-70
2023/06/19 10:20:32;;;;;;;5.37;3.60;;;41.90;37.60;;;;;;10219035;28;20250;-70
2023/06/19 10:25:35;;;;;;;29.50;4.03;;;41.50;37.80;;;;;;10224810;28;20282;-70
2023/06/19 10:30:36;;;;;;;28.97;4.10;;;41.00;38.60;;;;;;10225009;28;20219;-71
2023/06/19 10:35:41;;;;;;;4.13;3.40;;;41.30;37.90;;;;;;10216268;28;20239;-71
2023/06/19 10:40:42;;;;;;;4.37;3.40;;;40.60;38.40;;;;;;10216551;28;20224;-71
2023/06/19 10:45:42;;;;;;;4.47;3.17;;;39.10;40.60;;;;;;10224253;28;20253;-70
2023/06/19 10:50:43;;;;;;;6.43;3.60;;;38.10;42.10;;;;;;10230361;28;20249;-70
2023/06/19 10:55:44;;;;;;;3.20;2.90;;;36.80;44.00;;;;;;10223915;28;20746;-70
2023/06/19 11:00:45;;;;;;;6.70;3.33;;;36.10;45.60;;;;;;10223024;28;20297;-71
2023/06/19 11:05:46;;;;;;;3.87;3.47;;;35.60;46.40;;;;;;10231018;28;20219;-70
2023/06/19 11:10:47;;;;;;;11.80;3.67;;;35.00;46.10;;;;;;10223791;28;20216;-71
2023/06/19 11:15:51;;;;;;;7.53;3.63;;;34.50;47.40;;;;;;10230216;28;20609;-70
2023/06/19 11:20:52;;;;;;;4.90;3.47;;;34.30;48.00;;;;;;10232690;28;20227;-69
2023/06/19 11:25:53;;;;;;;6.37;3.23;;;34.30;48.30;;;;;;10223935;28;20232;-70
2023/06/19 11:31:02;;;;;;;5.83;3.70;;;34.70;48.20;;;;;;10235151;28;20212;-72
2023/06/19 11:36:03;;;;;;;4.60;3.70;;;35.40;45.90;;;;;;10208302;28;20253;-71
2023/06/19 11:41:04;;;;;;;4.73;3.70;;;35.60;46.00;;;;;;10240382;28;20227;-71
2023/06/19 11:46:06;;;;;;;4.40;3.30;;;35.40;46.00;;;;;;10224582;28;20318;-71
2023/06/19 11:51:08;;;;;;;6.87;3.57;;;35.10;46.60;;;;;;10236503;28;20247;-70
2023/06/19 11:56:09;;;;;;;4.07;3.67;;;35.00;47.00;;;;;;10225669;28;20704;-70
2023/06/19 12:01:09;;;;;;;6.63;3.47;;;35.00;47.10;;;;;;10224482;28;20245;-70
2023/06/19 12:06:10;;;;;;;6.17;3.40;;;35.00;47.00;;;;;;10231947;28;20233;-71
2023/06/19 12:11:12;;;;;;;3.80;3.50;;;34.90;46.50;;;;;;10224359;28;20255;-70
2023/06/19 12:16:14;;;;;;;9.33;3.60;;;34.20;46.90;;;;;;10228481;28;20256;-70
2023/06/19 12:21:14;;;;;;;3.67;3.37;;;33.80;48.20;;;;;;10226394;28;20231;-71
2023/06/19 12:26:15;;;;;;;6.17;3.70;;;33.90;47.80;;;;;;10225750;28;20239;-71
2023/06/19 12:31:16;;;;;;;6.60;3.50;;;33.90;47.40;;;;;;10223566;28;20293;-71
2023/06/19 12:36:16;;;;;;;4.60;3.40;;;33.80;47.40;;;;;;10225242;28;20587;-70
2023/06/19 12:41:17;;;;;;;5.37;3.50;;;33.80;47.40;;;;;;10230072;28;20834;-72
2023/06/19 12:46:17;;;;;;;4.10;3.67;;;33.80;47.40;;;;;;10220759;28;20283;-72
2023/06/19 12:51:18;;;;;;;17.00;5.00;;;34.00;47.00;;;;;;10224512;28;20234;-71
2023/06/19 12:56:19;;;;;;;7.50;4.10;;;34.10;47.50;;;;;;10221833;28;20220;-70
2023/06/19 13:01:19;;;;;;;4.40;3.57;;;34.30;47.10;;;;;;10225191;28;20694;-70
2023/06/19 13:06:20;;;;;;;5.00;3.77;;;34.20;47.10;;;;;;10233011;28;20338;-70
2023/06/19 13:11:20;;;;;;;6.77;3.73;;;34.10;46.60;;;;;;10224540;28;20242;-70
2023/06/19 13:16:21;;;;;;;6.63;3.47;;;34.40;46.90;;;;;;10225259;28;20224;-70
2023/06/19 13:21:22;;;;;;;4.00;3.70;;;34.40;46.70;;;;;;10232930;28;20413;-70
2023/06/19 13:26:23;;;;;;;4.00;3.40;;;34.40;46.60;;;;;;10220941;28;20243;-71
2023/06/19 13:31:23;;;;;;;4.30;3.87;;;34.10;46.10;;;;;;10225446;28;20219;-70
2023/06/19 13:36:26;;;;;;;5.67;3.50;;;33.60;46.90;;;;;;10224252;28;20229;-71
2023/06/19 13:41:28;;;;;;;6.43;3.70;;;33.50;46.70;;;;;;10222658;28;20216;-71
2023/06/19 13:46:29;;;;;;;5.17;3.63;;;33.60;46.80;;;;;;10237899;28;20268;-70
2023/06/19 13:51:29;;;;;;;5.70;3.70;;;33.20;47.20;;;;;;10224818;28;20714;-70
2023/06/19 13:56:31;;;;;;;5.57;3.40;;;32.60;48.30;;;;;;10225359;28;20311;-70
2023/06/19 14:01:32;;;;;;;8.07;4.10;;;32.50;48.90;;;;;;10228409;28;20220;-69
2023/06/19 14:06:33;;;;;;;4.07;3.10;;;32.50;49.30;;;;;;10223871;28;20656;-71
2023/06/19 14:11:33;;;;;;;3.53;3.23;;;32.30;49.50;;;;;;10231090;28;20218;-70
2023/06/19 14:16:34;;;;;;;3.67;3.20;;;31.80;49.80;;;;;;10217060;28;20224;-70
2023/06/19 14:21:34;;;;;;;3.20;3.00;;;31.90;49.30;;;;;;10224114;28;20708;-72
2023/06/19 14:26:35;;;;;;;7.03;3.20;;;31.90;49.20;;;;;;10224383;28;20231;-71
2023/06/19 14:31:35;;;;;;;3.13;2.73;;;32.00;49.00;;;;;;10219416;28;20211;-70
2023/06/19 14:36:39;;;;;;;3.80;2.90;;;32.20;48.30;;;;;;10224209;28;20227;-70
2023/06/19 14:41:40;;;;;;;3.87;3.00;;;32.00;49.30;;;;;;10215473;28;20252;-70
2023/06/19 14:46:40;;;;;;;4.40;3.00;;;32.20;49.40;;;;;;10223818;28;20299;-70
2023/06/19 14:51:44;;;;;;;6.20;3.30;;;32.70;48.80;;;;;;10216038;28;20243;-71
2023/06/19 14:56:49;;;;;;;10.70;3.40;;;32.90;47.70;;;;;;10230676;28;20223;-70
2023/06/19 15:01:49;;;;;;;4.80;2.83;;;32.70;48.30;;;;;;10225784;28;20243;-70
2023/06/19 15:06:50;;;;;;;3.40;2.60;;;32.30;48.50;;;;;;10220825;28;20318;-70
2023/06/19 15:11:50;;;;;;;4.07;3.20;;;32.00;49.40;;;;;;10222970;28;20575;-71
2023/06/19 15:16:51;;;;;;;3.43;3.17;;;31.90;50.20;;;;;;10223424;28;20228;-71
2023/06/19 15:21:51;;;;;;;3.10;2.87;;;31.90;50.50;;;;;;10221331;28;20234;-70
2023/06/19 15:26:52;;;;;;;3.07;2.77;;;32.00;50.60;;;;;;10216048;28;20708;-70
2023/06/19 15:31:52;;;;;;;3.30;2.97;;;31.90;50.90;;;;;;10229231;28;20668;-72
2023/06/19 15:36:53;;;;;;;3.83;3.00;;;31.90;50.90;;;;;;10222530;28;20732;-70
2023/06/19 15:41:54;;;;;;;3.23;2.93;;;31.80;51.10;;;;;;10227756;28;20227;-71
2023/06/19 15:46:57;;;;;;;6.17;3.20;;;31.80;50.90;;;;;;10228079;28;20780;-71
2023/06/19 15:51:58;;;;;;;3.50;3.13;;;32.00;51.10;;;;;;10219777;28;20230;-71
2023/06/19 15:56:59;;;;;;;7.67;3.00;;;32.10;51.20;;;;;;10225806;28;20251;-71
2023/06/19 16:01:59;;;;;;;7.83;3.80;;;31.90;51.40;;;;;;10225797;28;20228;-70
2023/06/19 16:07:00;;;;;;;3.70;3.30;;;31.50;52.20;;;;;;10225787;28;20224;-70
2023/06/19 16:12:01;;;;;;;4.77;3.13;;;31.20;52.90;;;;;;10224057;28;20223;-71
2023/06/19 16:17:04;;;;;;;3.87;3.23;;;31.30;53.00;;;;;;10229706;28;20224;-72
2023/06/19 16:22:06;;;;;;;3.60;3.20;;;31.30;52.90;;;;;;10231381;28;20280;-71
2023/06/19 16:27:06;;;;;;;5.53;3.63;;;31.40;52.90;;;;;;10229731;28;20227;-69
2023/06/19 16:32:10;;;;;;;9.40;3.87;;;31.40;53.20;;;;;;10224647;28;20259;-70
2023/06/19 16:37:11;;;;;;;3.40;2.90;;;31.40;53.00;;;;;;10224254;28;20223;-70
2023/06/19 16:42:11;;;;;;;3.73;3.43;;;31.40;53.00;;;;;;10228207;28;20230;-70
2023/06/19 16:47:12;;;;;;;3.60;3.30;;;31.20;53.40;;;;;;10223554;28;20232;-71
2023/06/19 16:52:12;;;;;;;12.93;3.97;;;31.00;53.50;;;;;;10230670;28;20239;-70
2023/06/19 16:57:16;;;;;;;8.40;3.77;;;30.70;54.10;;;;;;10226883;28;20219;-70
2023/06/19 17:02:16;;;;;;;4.90;3.60;;;30.40;55.10;;;;;;10220627;28;20239;-71
2023/06/19 17:07:17;;;;;;;7.77;3.80;;;30.20;55.30;;;;;;10223508;28;20319;-70
2023/06/19 17:12:21;;;;;;;5.57;3.60;;;30.00;55.60;;;;;;10221360;28;20894;-71
2023/06/19 17:17:24;;;;;;;4.33;3.60;;;29.90;56.00;;;;;;10231673;28;20224;-70
2023/06/19 17:22:25;;;;;;;25.47;4.87;;;29.90;56.20;;;;;;10219901;28;20220;-71
2023/06/19 17:27:25;;;;;;;4.00;3.50;;;29.90;56.60;;;;;;10225123;28;20235;-72
2023/06/19 17:32:26;;;;;;;4.63;3.57;;;30.00;56.60;;;;;;10223642;28;20242;-72
2023/06/19 17:37:27;;;;;;;5.03;3.87;;;30.10;56.20;;;;;;10219095;28;20803;-70
2023/06/19 17:42:27;;;;;;;4.63;4.00;;;30.10;56.40;;;;;;10235389;28;20235;-71
2023/06/19 17:47:28;;;;;;;5.53;3.80;;;30.00;56.60;;;;;;10228880;28;20706;-71
2023/06/19 17:52:28;;;;;;;7.10;3.60;;;29.80;56.90;;;;;;10218582;28;20306;-71
2023/06/19 17:57:29;;;;;;;5.10;4.20;;;29.50;57.50;;;;;;10224168;28;20215;-71
2023/06/19 18:02:30;;;;;;;5.87;3.47;;;29.40;58.10;;;;;;10226344;28;20300;-69
2023/06/19 18:07:31;;;;;;;5.53;3.90;;;29.30;58.50;;;;;;10224474;28;20972;-70
2023/06/19 18:12:31;;;;;;;5.13;4.40;;;29.20;58.90;;;;;;10224503;28;20230;-69
2023/06/19 18:17:32;;;;;;;6.10;3.57;;;29.20;59.30;;;;;;10224953;28;20216;-69
2023/06/19 18:22:32;;;;;;;3.83;3.53;;;29.10;59.40;;;;;;10230940;28;20756;-71
2023/06/19 18:27:33;;;;;;;8.63;3.67;;;28.90;59.70;;;;;;10216937;28;20236;-70
2023/06/19 18:32:33;;;;;;;8.37;4.07;;;28.80;60.40;;;;;;10223116;28;20220;-71
2023/06/19 18:37:34;;;;;;;4.83;3.90;;;28.70;60.80;;;;;;10214708;28;20251;-71
2023/06/19 18:42:34;;;;;;;5.57;3.80;;;28.70;61.20;;;;;;10223858;28;20281;-70
2023/06/19 18:47:35;;;;;;;4.20;3.23;;;28.60;61.60;;;;;;10220623;28;20234;-70
2023/06/19 18:52:36;;;;;;;6.60;3.70;;;28.50;61.60;;;;;;10215742;28;20228;-72
2023/06/19 18:57:36;;;;;;;5.47;3.60;;;28.40;62.20;;;;;;10229128;28;20318;-71
2023/06/19 19:02:37;;;;;;;4.10;3.70;;;28.20;62.70;;;;;;10214962;28;20701;-70
2023/06/19 19:07:37;;;;;;;7.30;3.93;;;28.00;62.90;;;;;;10214850;28;20224;-70
2023/06/19 19:12:38;;;;;;;3.90;3.60;;;27.90;63.40;;;;;;10222539;28;20234;-71
2023/06/19 19:17:38;;;;;;;5.33;3.90;;;27.80;63.40;;;;;;10248922;28;20231;-71
2023/06/19 19:22:39;;;;;;;5.13;3.87;;;27.70;63.70;;;;;;10221330;28;20301;-70
2023/06/19 19:27:40;;;;;;;4.07;3.67;;;27.60;63.70;;;;;;10218154;28;20232;-71
2023/06/19 19:32:40;;;;;;;6.13;4.20;;;27.50;64.70;;;;;;10229990;28;20226;-72
2023/06/19 19:37:41;;;;;;;4.13;3.63;;;27.30;65.40;;;;;;10229029;28;20234;-71
2023/06/19 19:42:41;;;;;;;4.10;3.80;;;27.30;65.80;;;;;;10229271;28;20695;-72
2023/06/19 19:47:42;;;;;;;4.07;3.67;;;27.10;66.40;;;;;;10235366;28;20722;-71
2023/06/19 19:52:42;;;;;;;4.40;4.00;;;27.00;66.40;;;;;;10221279;28;20247;-71
2023/06/19 19:57:43;;;;;;;11.67;4.57;;;26.80;67.00;;;;;;10228440;28;20273;-71
2023/06/19 20:02:44;;;;;;;6.13;3.90;;;26.60;67.80;;;;;;10228135;28;20223;-70
2023/06/19 20:07:45;;;;;;;7.87;4.70;;;26.40;69.10;;;;;;10222972;28;20239;-69
2023/06/19 20:12:48;;;;;;;9.67;4.60;;;26.20;69.80;;;;;;10226760;28;20309;-71
2023/06/19 20:17:48;;;;;;;6.00;5.13;;;26.10;71.20;;;;;;10222177;28;20232;-71
2023/06/19 20:22:49;;;;;;;7.37;4.40;;;26.00;72.20;;;;;;10233574;28;20223;-71
2023/06/19 20:27:50;;;;;;;7.37;4.67;;;25.90;72.40;;;;;;10228240;28;20600;-71
2023/06/19 20:32:50;;;;;;;8.90;4.60;;;25.90;72.90;;;;;;10224342;28;20227;-70
2023/06/19 20:37:51;;;;;;;6.03;5.30;;;25.80;73.60;;;;;;10225192;28;20544;-71
2023/06/19 20:42:52;;;;;;;10.43;5.50;;;25.60;74.20;;;;;;10221024;28;20727;-70
2023/06/19 20:47:52;;;;;;;14.40;5.43;;;25.60;74.80;;;;;;10233131;28;20231;-70
2023/06/19 20:52:53;;;;;;;10.10;5.80;;;25.40;75.10;;;;;;10221437;28;20239;-70
2023/06/19 20:57:53;;;;;;;8.40;5.40;;;25.30;75.40;;;;;;10224905;28;20306;-70
2023/06/19 21:02:54;;;;;;;11.27;5.20;;;25.20;75.90;;;;;;10227657;28;20595;-70
2023/06/19 21:07:54;;;;;;;9.33;5.40;;;25.10;76.60;;;;;;10226868;28;20285;-70
2023/06/19 21:12:55;;;;;;;8.37;5.70;;;25.00;77.10;;;;;;10225900;28;20350;-71
2023/06/19 21:17:55;;;;;;;8.80;6.03;;;25.00;77.50;;;;;;10233801;28;20237;-71
2023/06/19 21:22:57;;;;;;;9.17;6.00;;;24.90;77.80;;;;;;10224610;28;20758;-69
2023/06/19 21:27:58;;;;;;;7.00;5.13;;;24.90;78.50;;;;;;10229376;28;20320;-69
2023/06/19 21:32:58;;;;;;;8.23;5.87;;;24.90;78.80;;;;;;10218319;28;21262;-69
2023/06/19 21:37:59;;;;;;;11.07;6.00;;;24.80;79.20;;;;;;10233198;28;20604;-70
2023/06/19 21:42:59;;;;;;;9.50;6.17;;;24.80;79.30;;;;;;10223640;28;20257;-70
2023/06/19 21:48:00;;;;;;;9.60;6.00;;;24.80;79.10;;;;;;10237918;28;20317;-69
2023/06/19 21:53:03;;;;;;;7.57;6.03;;;24.80;79.30;;;;;;10227562;28;20917;-70
2023/06/19 21:58:07;;;;;;;7.40;5.97;;;24.80;80.00;;;;;;10225435;28;20800;-69
2023/06/19 22:03:07;;;;;;;6.27;5.63;;;24.80;80.30;;;;;;10220353;28;20315;-70
2023/06/19 22:08:08;;;;;;;7.63;5.67;;;24.80;80.60;;;;;;10221089;28;20242;-70
2023/06/19 22:13:10;;;;;;;9.93;6.37;;;24.80;81.60;;;;;;10232219;28;20230;-71
2023/06/19 22:18:10;;;;;;;6.77;5.47;;;24.80;80.60;;;;;;10225014;28;20228;-70
2023/06/19 22:23:11;;;;;;;7.00;4.60;;;24.90;79.60;;;;;;10220639;28;20224;-69
2023/06/19 22:28:11;;;;;;;7.17;4.67;;;25.00;78.40;;;;;;10224731;28;20235;-70
2023/06/19 22:33:12;;;;;;;5.60;4.57;;;25.00;77.90;;;;;;10220704;28;20683;-70
2023/06/19 22:38:13;;;;;;;6.13;5.10;;;25.00;78.00;;;;;;10223995;28;20756;-70
2023/06/19 22:43:14;;;;;;;6.77;5.20;;;25.10;78.50;;;;;;10219246;28;20263;-70
2023/06/19 22:48:17;;;;;;;5.77;5.10;;;25.00;78.20;;;;;;10220414;28;20238;-70
2023/06/19 22:53:18;;;;;;;7.07;5.17;;;25.10;78.70;;;;;;10223269;28;20230;-69
2023/06/19 22:58:19;;;;;;;5.73;5.07;;;25.00;79.30;;;;;;10218605;28;20231;-71
2023/06/19 23:03:21;;;;;;;6.37;5.20;;;25.00;79.50;;;;;;10228416;28;20230;-71
2023/06/19 23:08:22;;;;;;;8.73;5.90;;;25.00;79.50;;;;;;10234915;28;20233;-71
2023/06/19 23:13:22;;;;;;;6.03;5.10;;;25.00;80.30;;;;;;10242537;28;20219;-71
2023/06/19 23:18:23;;;;;;;6.50;5.30;;;25.00;80.80;;;;;;10230788;28;20240;-70
2023/06/19 23:23:23;;;;;;;5.70;5.10;;;24.90;80.80;;;;;;10241077;28;20230;-70
2023/06/19 23:28:24;;;;;;;5.67;5.17;;;24.90;81.00;;;;;;10230685;28;20638;-69
2023/06/19 23:33:25;;;;;;;6.43;5.50;;;24.90;81.20;;;;;;10241904;28;20229;-69
2023/06/19 23:38:27;;;;;;;6.43;5.40;;;25.00;81.10;;;;;;10234746;28;20230;-70
2023/06/19 23:43:27;;;;;;;6.60;5.97;;;25.00;81.30;;;;;;10236387;28;20225;-71
2023/06/19 23:48:31;;;;;;;12.30;7.17;;;24.90;81.70;;;;;;10243611;28;20235;-69
2023/06/19 23:53:32;;;;;;;7.80;6.20;;;24.80;89.20;;;;;;10235754;28;20235;-71
2023/06/19 23:58:36;;;;;;;9.43;6.70;;;24.70;90.40;;;;;;10233668;28;20741;-70
